sim
Sign-in with your pilot id or email,
or register
Callsign
Passwort

Schedule Details

Flight Number: DLH2058
Departure: Munich Airport (EDDM) at 05:40
Arrival: Hamburg Airport (EDDH) at 07:00
Route: Lufthansa Passenger Schedule. Enter filed route here before submitting Pirep.

Weather Information
Getting current METAR information for EDDM 211320Z 03005KT 310V110 CAVOK 23/13 Q1016 NOSIG
Getting current METAR information for EDDH 211320Z VRB04KT CAVOK 23/08 Q1016 NOSIG

Schedule Frequency

Route Map